This is the latest recevied weather packets stored in our database for station/object K4CRS-13. If no packets are shown the sender has not sent any weather packets the latest 10 day(s).
| Time | Temp. | Humidity | Pressure | Rain* | Wind** | Luminosity | Snow |
|---|---|---|---|---|---|---|---|
| 1778008771 | 23.89° C | 59% | 1046.5 hPa | 0 mm | - | 461 W/m² | - |
| 1778008470 | 24.44° C | 60% | 1046.6 hPa | 0 mm | - | 555 W/m² | - |
| 1778008166 | 24.44° C | 61% | 1046.7 hPa | 0 mm | - | 792 W/m² | - |
| 1778007861 | 23.89° C | 64% | 1046.8 hPa | 0 mm | - | 869 W/m² | - |
| 1778007557 | 22.78° C | 66% | 1046.7 hPa | 0 mm | - | 840 W/m² | - |
| 1778007255 | 22.22° C | 70% | 1047 hPa | 0 mm | - | 327 W/m² | - |
| 1778006950 | 21.67° C | 72% | 1047 hPa | 0 mm | - | 624 W/m² | - |
| 1778006647 | 21.11° C | 71% | 1047.1 hPa | 0 mm | - | 241 W/m² | - |
| 1778006344 | 20.56° C | 72% | 1047.4 hPa | 0 mm | - | 185 W/m² | - |
| 1778006041 | 20.56° C | 73% | 1047.5 hPa | 0 mm | - | 208 W/m² | - |
| 1778005737 | 20.56° C | 72% | 1047.5 hPa | 0 mm | - | 163 W/m² | - |
| 1778005435 | 20.56° C | 72% | 1047.8 hPa | 0 mm | - | 122 W/m² | - |
| 1778005131 | 20.56° C | 72% | 1047.8 hPa | 0 mm | - | 243 W/m² | - |
| 1778004829 | 20.56° C | 72% | 1047.7 hPa | 0 mm | - | 264 W/m² | - |
| 1778004525 | 20.56° C | 71% | 1047.9 hPa | 0 mm | - | 199 W/m² | - |
| 1778004222 | 20.56° C | 71% | 1047.9 hPa | 0 mm | - | 223 W/m² | - |
| 1778003918 | 20.56° C | 68% | 1047.9 hPa | 0 mm | - | 221 W/m² | - |
| 1778003614 | 21.11° C | 66% | 1047.7 hPa | 0 mm | - | 101 W/m² | - |
| 1778003311 | 21.67° C | 66% | 1048.4 hPa | 0 mm | - | 109 W/m² | - |
| 1778003009 | 22.22° C | 63% | 1048.6 hPa | 0 mm | - | 118 W/m² | - |
| 1778002704 | 22.22° C | 64% | 1049 hPa | 0 mm | - | 190 W/m² | - |
| 1778002401 | 22.78° C | 61% | 1048.8 hPa | 0 mm | - | 315 W/m² | - |
| 1778002099 | 23.33° C | 60% | 1048.8 hPa | 0 mm | - | 323 W/m² | - |
| 1778001796 | 23.89° C | 56% | 1048.8 hPa | 0 mm | - | 326 W/m² | - |
| 1778001495 | 24.44° C | 56% | 1048.9 hPa | 0 mm | - | 512 W/m² | - |
* Rain latest hour (hover to see other rain measurements)
** Current wind speed in m/s (hover to see current wind gust speed)